SBVT Airport Information

Runway Information
Runway 5 Length 5741 ft width 148 ft
Elevation 0 ft Threshold 0 ft Heading 0
Runway 23 Length 5741 ft Width 148 ft
Elevation 0 ft Threshold 0 ft Heading 0
Airport Frequencies
Type APP Name VITORIA AP Frequency 119.85 MHZ
Type ATIS Name VITORIA AT Frequency 127.575 MHZ
Type TWR Name VITORIA TW Frequency 118.1 MHZ
Airport Navaids
Type VOR-DME Name Vitoria Frequency 115500 KHZ
Type NDB Name Vitoria Frequency 350 KHZ
Airport Weather Information & NOTAM
ADDS - METARS form results

(1010 UTC 18 August 2018)
 
METAR text: SBVT 181000Z 34001KT CAVOK 18/18 Q1024
Conditions at: SBVT (VITORIA/GOIABEIR, BR) observed 1000 UTC 18 August 2018
Temperature: 18.0°C (64°F)
Dewpoint: 18.0°C (64°F) [RH = 100%]
Pressure (altimeter): 30.24 inches Hg (1024.0 mb)
Winds: from the NNW (340 degrees) at 1 MPH (1 knots; 0.5 m/s)
Visibility: 6 or more miles (10+ km)
Ceiling: ceiling and visibility are OK
Clouds: unknown
Weather: no significant weather observed at this time